sensor_id;sensor_type;location;lat;lon;timestamp;P1;durP1;ratioP1;P2;durP2;ratioP2
2326;SDS011;1174;51.588;7.328;2022-08-03T00:01:04;4.10;;;2.20;;
2326;SDS011;1174;51.588;7.328;2022-08-03T00:03:31;11.53;;;4.40;;
2326;SDS011;1174;51.588;7.328;2022-08-03T00:05:58;3.70;;;3.30;;
2326;SDS011;1174;51.588;7.328;2022-08-03T00:08:27;7.43;;;2.60;;
2326;SDS011;1174;51.588;7.328;2022-08-03T00:10:54;5.87;;;2.80;;
2326;SDS011;1174;51.588;7.328;2022-08-03T00:13:21;5.60;;;2.57;;
2326;SDS011;1174;51.588;7.328;2022-08-03T00:15:48;3.40;;;2.57;;
2326;SDS011;1174;51.588;7.328;2022-08-03T00:18:15;4.73;;;3.10;;
2326;SDS011;1174;51.588;7.328;2022-08-03T00:20:42;2.50;;;2.30;;
2326;SDS011;1174;51.588;7.328;2022-08-03T00:23:08;3.60;;;2.80;;
2326;SDS011;1174;51.588;7.328;2022-08-03T00:25:37;3.80;;;2.90;;
2326;SDS011;1174;51.588;7.328;2022-08-03T00:28:04;2.10;;;1.90;;
2326;SDS011;1174;51.588;7.328;2022-08-03T00:30:31;9.73;;;2.70;;
2326;SDS011;1174;51.588;7.328;2022-08-03T00:32:58;2.83;;;2.40;;
2326;SDS011;1174;51.588;7.328;2022-08-03T00:35:26;7.40;;;3.30;;
2326;SDS011;1174;51.588;7.328;2022-08-03T00:37:53;4.47;;;3.17;;
2326;SDS011;1174;51.588;7.328;2022-08-03T00:40:20;3.63;;;2.20;;
2326;SDS011;1174;51.588;7.328;2022-08-03T00:42:52;3.23;;;2.10;;
2326;SDS011;1174;51.588;7.328;2022-08-03T00:45:20;2.60;;;2.10;;
2326;SDS011;1174;51.588;7.328;2022-08-03T00:47:48;4.60;;;2.40;;
2326;SDS011;1174;51.588;7.328;2022-08-03T00:50:15;4.40;;;3.70;;
2326;SDS011;1174;51.588;7.328;2022-08-03T00:52:43;4.53;;;2.67;;
2326;SDS011;1174;51.588;7.328;2022-08-03T00:55:10;7.60;;;3.33;;
2326;SDS011;1174;51.588;7.328;2022-08-03T00:57:38;2.20;;;1.87;;
2326;SDS011;1174;51.588;7.328;2022-08-03T01:00:07;3.07;;;2.50;;
2326;SDS011;1174;51.588;7.328;2022-08-03T01:02:36;5.07;;;3.70;;
2326;SDS011;1174;51.588;7.328;2022-08-03T01:05:04;4.73;;;2.57;;
2326;SDS011;1174;51.588;7.328;2022-08-03T01:07:34;3.23;;;2.93;;
2326;SDS011;1174;51.588;7.328;2022-08-03T01:10:09;2.80;;;2.20;;
2326;SDS011;1174;51.588;7.328;2022-08-03T01:12:41;6.10;;;2.67;;
2326;SDS011;1174;51.588;7.328;2022-08-03T01:15:16;3.53;;;2.20;;
2326;SDS011;1174;51.588;7.328;2022-08-03T01:17:50;5.23;;;2.17;;
2326;SDS011;1174;51.588;7.328;2022-08-03T01:20:23;3.80;;;3.50;;
2326;SDS011;1174;51.588;7.328;2022-08-03T01:25:55;4.13;;;2.60;;
2326;SDS011;1174;51.588;7.328;2022-08-03T01:28:32;3.30;;;2.60;;
2326;SDS011;1174;51.588;7.328;2022-08-03T01:31:14;2.20;;;2.00;;
2326;SDS011;1174;51.588;7.328;2022-08-03T01:33:51;2.57;;;2.37;;
2326;SDS011;1174;51.588;7.328;2022-08-03T01:36:23;11.03;;;3.00;;
2326;SDS011;1174;51.588;7.328;2022-08-03T01:38:56;3.50;;;2.43;;
2326;SDS011;1174;51.588;7.328;2022-08-03T01:41:28;2.73;;;2.30;;
2326;SDS011;1174;51.588;7.328;2022-08-03T01:43:57;3.47;;;2.60;;
2326;SDS011;1174;51.588;7.328;2022-08-03T01:46:28;3.50;;;2.03;;
2326;SDS011;1174;51.588;7.328;2022-08-03T01:48:56;2.60;;;2.20;;
2326;SDS011;1174;51.588;7.328;2022-08-03T01:51:24;2.57;;;2.03;;
2326;SDS011;1174;51.588;7.328;2022-08-03T01:53:52;4.30;;;2.50;;
2326;SDS011;1174;51.588;7.328;2022-08-03T01:56:21;3.30;;;2.63;;
2326;SDS011;1174;51.588;7.328;2022-08-03T01:58:49;3.03;;;2.33;;
2326;SDS011;1174;51.588;7.328;2022-08-03T02:01:19;3.90;;;2.20;;
2326;SDS011;1174;51.588;7.328;2022-08-03T02:03:49;2.33;;;2.13;;
2326;SDS011;1174;51.588;7.328;2022-08-03T02:06:17;11.33;;;2.47;;
2326;SDS011;1174;51.588;7.328;2022-08-03T02:08:47;4.07;;;3.30;;
2326;SDS011;1174;51.588;7.328;2022-08-03T02:11:15;7.20;;;2.70;;
2326;SDS011;1174;51.588;7.328;2022-08-03T02:13:42;3.47;;;2.40;;
2326;SDS011;1174;51.588;7.328;2022-08-03T02:16:10;2.43;;;2.23;;
2326;SDS011;1174;51.588;7.328;2022-08-03T02:18:39;4.80;;;2.40;;
2326;SDS011;1174;51.588;7.328;2022-08-03T02:21:09;3.10;;;2.60;;
2326;SDS011;1174;51.588;7.328;2022-08-03T02:23:37;2.73;;;2.10;;
2326;SDS011;1174;51.588;7.328;2022-08-03T02:26:05;3.53;;;2.30;;
2326;SDS011;1174;51.588;7.328;2022-08-03T02:28:36;3.60;;;2.47;;
2326;SDS011;1174;51.588;7.328;2022-08-03T02:31:10;3.73;;;2.43;;
2326;SDS011;1174;51.588;7.328;2022-08-03T02:33:41;3.30;;;2.53;;
2326;SDS011;1174;51.588;7.328;2022-08-03T02:36:13;5.23;;;2.30;;
2326;SDS011;1174;51.588;7.328;2022-08-03T02:38:42;3.10;;;2.03;;
2326;SDS011;1174;51.588;7.328;2022-08-03T02:41:12;10.83;;;3.27;;
2326;SDS011;1174;51.588;7.328;2022-08-03T02:43:42;4.93;;;2.93;;
2326;SDS011;1174;51.588;7.328;2022-08-03T02:46:13;7.00;;;2.93;;
2326;SDS011;1174;51.588;7.328;2022-08-03T02:48:45;2.30;;;1.90;;
2326;SDS011;1174;51.588;7.328;2022-08-03T02:51:14;4.83;;;2.60;;
2326;SDS011;1174;51.588;7.328;2022-08-03T02:53:44;6.00;;;2.83;;
2326;SDS011;1174;51.588;7.328;2022-08-03T02:56:12;3.13;;;2.57;;
2326;SDS011;1174;51.588;7.328;2022-08-03T02:58:41;5.60;;;2.67;;
2326;SDS011;1174;51.588;7.328;2022-08-03T03:01:10;4.03;;;2.77;;
2326;SDS011;1174;51.588;7.328;2022-08-03T03:03:38;4.93;;;4.53;;
2326;SDS011;1174;51.588;7.328;2022-08-03T03:06:06;3.17;;;2.87;;
2326;SDS011;1174;51.588;7.328;2022-08-03T03:08:35;4.43;;;3.00;;
2326;SDS011;1174;51.588;7.328;2022-08-03T03:11:02;5.17;;;3.17;;
2326;SDS011;1174;51.588;7.328;2022-08-03T03:13:30;3.90;;;2.60;;
2326;SDS011;1174;51.588;7.328;2022-08-03T03:15:58;3.03;;;2.27;;
2326;SDS011;1174;51.588;7.328;2022-08-03T03:18:27;7.03;;;3.00;;
2326;SDS011;1174;51.588;7.328;2022-08-03T03:20:56;4.47;;;2.83;;
2326;SDS011;1174;51.588;7.328;2022-08-03T03:23:23;3.50;;;2.53;;
2326;SDS011;1174;51.588;7.328;2022-08-03T03:25:53;4.37;;;3.07;;
2326;SDS011;1174;51.588;7.328;2022-08-03T03:28:22;7.10;;;3.50;;
2326;SDS011;1174;51.588;7.328;2022-08-03T03:30:50;3.53;;;2.70;;
2326;SDS011;1174;51.588;7.328;2022-08-03T03:33:17;3.83;;;2.40;;
2326;SDS011;1174;51.588;7.328;2022-08-03T03:35:44;5.90;;;2.70;;
2326;SDS011;1174;51.588;7.328;2022-08-03T03:38:11;5.97;;;2.27;;
2326;SDS011;1174;51.588;7.328;2022-08-03T03:40:38;4.00;;;2.60;;
2326;SDS011;1174;51.588;7.328;2022-08-03T03:43:08;5.83;;;2.80;;
2326;SDS011;1174;51.588;7.328;2022-08-03T03:45:36;16.10;;;3.90;;
2326;SDS011;1174;51.588;7.328;2022-08-03T03:48:06;7.63;;;3.70;;
2326;SDS011;1174;51.588;7.328;2022-08-03T03:50:34;5.43;;;2.57;;
2326;SDS011;1174;51.588;7.328;2022-08-03T03:53:07;10.90;;;3.40;;
2326;SDS011;1174;51.588;7.328;2022-08-03T03:55:35;9.37;;;4.23;;
2326;SDS011;1174;51.588;7.328;2022-08-03T03:58:02;10.57;;;3.97;;
2326;SDS011;1174;51.588;7.328;2022-08-03T04:00:31;23.37;;;4.00;;
2326;SDS011;1174;51.588;7.328;2022-08-03T04:02:58;16.80;;;4.00;;
2326;SDS011;1174;51.588;7.328;2022-08-03T04:05:25;21.70;;;4.00;;
2326;SDS011;1174;51.588;7.328;2022-08-03T04:08:10;12.63;;;3.50;;
2326;SDS011;1174;51.588;7.328;2022-08-03T04:11:03;7.20;;;2.87;;
2326;SDS011;1174;51.588;7.328;2022-08-03T04:13:36;7.43;;;5.43;;
2326;SDS011;1174;51.588;7.328;2022-08-03T04:16:06;19.97;;;5.03;;
2326;SDS011;1174;51.588;7.328;2022-08-03T04:18:37;42.07;;;6.03;;
2326;SDS011;1174;51.588;7.328;2022-08-03T04:21:07;13.17;;;3.63;;
2326;SDS011;1174;51.588;7.328;2022-08-03T04:23:36;18.77;;;5.33;;
2326;SDS011;1174;51.588;7.328;2022-08-03T04:26:07;10.70;;;3.20;;
2326;SDS011;1174;51.588;7.328;2022-08-03T04:28:37;10.60;;;3.07;;
2326;SDS011;1174;51.588;7.328;2022-08-03T04:31:07;13.87;;;3.60;;
2326;SDS011;1174;51.588;7.328;2022-08-03T04:33:36;18.47;;;4.50;;
2326;SDS011;1174;51.588;7.328;2022-08-03T04:36:05;7.03;;;3.60;;
2326;SDS011;1174;51.588;7.328;2022-08-03T04:38:35;9.27;;;2.80;;
2326;SDS011;1174;51.588;7.328;2022-08-03T04:41:04;15.30;;;4.00;;
2326;SDS011;1174;51.588;7.328;2022-08-03T04:43:32;16.97;;;3.90;;
2326;SDS011;1174;51.588;7.328;2022-08-03T04:46:00;6.37;;;3.17;;
2326;SDS011;1174;51.588;7.328;2022-08-03T04:48:29;10.93;;;3.70;;
2326;SDS011;1174;51.588;7.328;2022-08-03T04:50:56;5.93;;;3.00;;
2326;SDS011;1174;51.588;7.328;2022-08-03T04:53:24;8.53;;;2.60;;
2326;SDS011;1174;51.588;7.328;2022-08-03T04:55:51;12.60;;;3.97;;
2326;SDS011;1174;51.588;7.328;2022-08-03T04:58:18;9.17;;;4.30;;
2326;SDS011;1174;51.588;7.328;2022-08-03T05:00:45;11.37;;;3.50;;
2326;SDS011;1174;51.588;7.328;2022-08-03T05:03:15;6.77;;;3.43;;
2326;SDS011;1174;51.588;7.328;2022-08-03T05:05:43;5.20;;;3.13;;
2326;SDS011;1174;51.588;7.328;2022-08-03T05:08:10;16.80;;;3.80;;
2326;SDS011;1174;51.588;7.328;2022-08-03T05:10:37;9.20;;;2.93;;
2326;SDS011;1174;51.588;7.328;2022-08-03T05:13:03;11.07;;;5.23;;
2326;SDS011;1174;51.588;7.328;2022-08-03T05:15:35;10.10;;;3.43;;
2326;SDS011;1174;51.588;7.328;2022-08-03T05:18:03;7.27;;;4.37;;
2326;SDS011;1174;51.588;7.328;2022-08-03T05:20:29;18.53;;;4.67;;
2326;SDS011;1174;51.588;7.328;2022-08-03T05:22:58;10.87;;;4.83;;
2326;SDS011;1174;51.588;7.328;2022-08-03T05:25:25;11.47;;;4.73;;
2326;SDS011;1174;51.588;7.328;2022-08-03T05:27:52;25.67;;;4.47;;
2326;SDS011;1174;51.588;7.328;2022-08-03T05:30:19;33.37;;;4.60;;
2326;SDS011;1174;51.588;7.328;2022-08-03T05:32:46;12.40;;;3.47;;
2326;SDS011;1174;51.588;7.328;2022-08-03T05:35:13;16.37;;;3.90;;
2326;SDS011;1174;51.588;7.328;2022-08-03T05:37:40;16.67;;;4.90;;
2326;SDS011;1174;51.588;7.328;2022-08-03T05:40:09;9.60;;;3.40;;
2326;SDS011;1174;51.588;7.328;2022-08-03T05:42:36;7.13;;;3.77;;
2326;SDS011;1174;51.588;7.328;2022-08-03T05:45:03;6.80;;;4.43;;
2326;SDS011;1174;51.588;7.328;2022-08-03T05:47:38;15.83;;;3.57;;
2326;SDS011;1174;51.588;7.328;2022-08-03T05:50:05;6.77;;;2.70;;
2326;SDS011;1174;51.588;7.328;2022-08-03T05:52:33;16.23;;;3.67;;
2326;SDS011;1174;51.588;7.328;2022-08-03T05:55:00;7.17;;;3.43;;
2326;SDS011;1174;51.588;7.328;2022-08-03T05:57:28;11.60;;;3.20;;
2326;SDS011;1174;51.588;7.328;2022-08-03T05:59:55;16.13;;;4.53;;
2326;SDS011;1174;51.588;7.328;2022-08-03T06:02:22;6.83;;;3.57;;
2326;SDS011;1174;51.588;7.328;2022-08-03T06:04:49;7.03;;;2.60;;
2326;SDS011;1174;51.588;7.328;2022-08-03T06:07:15;3.97;;;2.97;;
2326;SDS011;1174;51.588;7.328;2022-08-03T06:09:42;4.90;;;2.80;;
2326;SDS011;1174;51.588;7.328;2022-08-03T06:12:09;4.37;;;2.40;;
2326;SDS011;1174;51.588;7.328;2022-08-03T06:14:37;3.20;;;2.33;;
2326;SDS011;1174;51.588;7.328;2022-08-03T06:17:04;3.83;;;2.33;;
2326;SDS011;1174;51.588;7.328;2022-08-03T06:19:31;2.50;;;2.30;;
2326;SDS011;1174;51.588;7.328;2022-08-03T06:21:58;10.57;;;2.37;;
2326;SDS011;1174;51.588;7.328;2022-08-03T06:24:25;4.33;;;2.40;;
2326;SDS011;1174;51.588;7.328;2022-08-03T06:26:55;4.23;;;2.40;;
2326;SDS011;1174;51.588;7.328;2022-08-03T06:29:22;3.80;;;1.93;;
2326;SDS011;1174;51.588;7.328;2022-08-03T06:31:50;2.87;;;2.30;;
2326;SDS011;1174;51.588;7.328;2022-08-03T06:34:17;5.27;;;2.10;;
2326;SDS011;1174;51.588;7.328;2022-08-03T06:36:43;2.93;;;2.03;;
2326;SDS011;1174;51.588;7.328;2022-08-03T06:39:12;4.63;;;2.40;;
2326;SDS011;1174;51.588;7.328;2022-08-03T06:41:39;5.23;;;2.37;;
2326;SDS011;1174;51.588;7.328;2022-08-03T06:44:06;4.93;;;2.90;;
2326;SDS011;1174;51.588;7.328;2022-08-03T06:46:35;3.80;;;2.60;;
2326;SDS011;1174;51.588;7.328;2022-08-03T06:49:03;6.73;;;4.10;;
2326;SDS011;1174;51.588;7.328;2022-08-03T06:51:30;2.73;;;2.00;;
2326;SDS011;1174;51.588;7.328;2022-08-03T06:53:57;3.73;;;2.30;;
2326;SDS011;1174;51.588;7.328;2022-08-03T06:56:24;6.30;;;2.20;;
2326;SDS011;1174;51.588;7.328;2022-08-03T06:58:50;5.90;;;2.90;;
2326;SDS011;1174;51.588;7.328;2022-08-03T07:01:17;6.63;;;2.30;;
2326;SDS011;1174;51.588;7.328;2022-08-03T07:03:44;2.70;;;1.77;;
2326;SDS011;1174;51.588;7.328;2022-08-03T07:06:12;4.13;;;1.97;;
2326;SDS011;1174;51.588;7.328;2022-08-03T07:08:39;2.40;;;2.20;;
2326;SDS011;1174;51.588;7.328;2022-08-03T07:11:06;3.33;;;2.20;;
2326;SDS011;1174;51.588;7.328;2022-08-03T07:13:33;4.40;;;2.20;;
2326;SDS011;1174;51.588;7.328;2022-08-03T07:16:00;3.83;;;2.37;;
2326;SDS011;1174;51.588;7.328;2022-08-03T07:18:26;4.00;;;2.37;;
2326;SDS011;1174;51.588;7.328;2022-08-03T07:20:53;3.73;;;2.20;;
2326;SDS011;1174;51.588;7.328;2022-08-03T07:23:22;2.53;;;2.20;;
2326;SDS011;1174;51.588;7.328;2022-08-03T07:25:49;2.73;;;1.80;;
2326;SDS011;1174;51.588;7.328;2022-08-03T07:28:16;1.90;;;1.70;;
2326;SDS011;1174;51.588;7.328;2022-08-03T07:30:43;3.20;;;1.87;;
2326;SDS011;1174;51.588;7.328;2022-08-03T07:33:10;3.30;;;1.90;;
2326;SDS011;1174;51.588;7.328;2022-08-03T07:35:36;2.47;;;1.90;;
2326;SDS011;1174;51.588;7.328;2022-08-03T07:38:03;4.53;;;3.33;;
2326;SDS011;1174;51.588;7.328;2022-08-03T07:40:32;3.30;;;1.80;;
2326;SDS011;1174;51.588;7.328;2022-08-03T07:42:59;11.43;;;2.43;;
2326;SDS011;1174;51.588;7.328;2022-08-03T07:45:27;7.83;;;2.50;;
2326;SDS011;1174;51.588;7.328;2022-08-03T07:47:55;4.13;;;2.00;;
2326;SDS011;1174;51.588;7.328;2022-08-03T07:50:22;2.70;;;1.80;;
2326;SDS011;1174;51.588;7.328;2022-08-03T07:52:49;2.47;;;2.17;;
2326;SDS011;1174;51.588;7.328;2022-08-03T07:55:18;4.83;;;2.50;;
2326;SDS011;1174;51.588;7.328;2022-08-03T07:57:47;4.53;;;2.70;;
2326;SDS011;1174;51.588;7.328;2022-08-03T08:00:23;2.63;;;2.33;;
2326;SDS011;1174;51.588;7.328;2022-08-03T08:02:50;3.63;;;2.50;;
2326;SDS011;1174;51.588;7.328;2022-08-03T08:05:17;3.40;;;2.30;;
2326;SDS011;1174;51.588;7.328;2022-08-03T08:07:44;4.50;;;2.10;;
2326;SDS011;1174;51.588;7.328;2022-08-03T08:10:11;5.17;;;2.30;;
2326;SDS011;1174;51.588;7.328;2022-08-03T08:12:38;3.70;;;2.47;;
2326;SDS011;1174;51.588;7.328;2022-08-03T08:15:07;3.10;;;1.90;;
2326;SDS011;1174;51.588;7.328;2022-08-03T08:17:40;3.93;;;3.60;;
2326;SDS011;1174;51.588;7.328;2022-08-03T08:20:08;2.30;;;1.90;;
2326;SDS011;1174;51.588;7.328;2022-08-03T08:22:36;2.37;;;1.90;;
2326;SDS011;1174;51.588;7.328;2022-08-03T08:25:03;3.27;;;2.03;;
2326;SDS011;1174;51.588;7.328;2022-08-03T08:27:31;3.00;;;2.50;;
2326;SDS011;1174;51.588;7.328;2022-08-03T08:29:57;4.77;;;2.20;;
2326;SDS011;1174;51.588;7.328;2022-08-03T08:32:26;3.30;;;2.40;;
2326;SDS011;1174;51.588;7.328;2022-08-03T08:34:52;7.07;;;3.10;;
2326;SDS011;1174;51.588;7.328;2022-08-03T08:37:20;3.60;;;2.50;;
2326;SDS011;1174;51.588;7.328;2022-08-03T08:39:47;2.17;;;1.90;;
2326;SDS011;1174;51.588;7.328;2022-08-03T08:42:14;2.00;;;1.80;;
2326;SDS011;1174;51.588;7.328;2022-08-03T08:44:41;10.73;;;2.50;;
2326;SDS011;1174;51.588;7.328;2022-08-03T08:47:08;6.90;;;2.30;;
2326;SDS011;1174;51.588;7.328;2022-08-03T08:49:36;5.30;;;2.70;;
2326;SDS011;1174;51.588;7.328;2022-08-03T08:52:05;2.10;;;1.90;;
2326;SDS011;1174;51.588;7.328;2022-08-03T08:54:33;2.83;;;1.90;;
2326;SDS011;1174;51.588;7.328;2022-08-03T08:57:02;2.30;;;2.10;;
2326;SDS011;1174;51.588;7.328;2022-08-03T08:59:31;3.50;;;2.00;;
2326;SDS011;1174;51.588;7.328;2022-08-03T09:01:59;3.00;;;2.37;;
2326;SDS011;1174;51.588;7.328;2022-08-03T09:04:26;4.03;;;2.00;;
2326;SDS011;1174;51.588;7.328;2022-08-03T09:06:56;3.30;;;3.00;;
2326;SDS011;1174;51.588;7.328;2022-08-03T09:09:23;9.87;;;2.23;;
2326;SDS011;1174;51.588;7.328;2022-08-03T09:11:49;9.23;;;2.83;;
2326;SDS011;1174;51.588;7.328;2022-08-03T09:14:16;3.10;;;1.90;;
2326;SDS011;1174;51.588;7.328;2022-08-03T09:16:56;2.50;;;2.30;;
2326;SDS011;1174;51.588;7.328;2022-08-03T09:19:26;8.10;;;2.23;;
2326;SDS011;1174;51.588;7.328;2022-08-03T09:22:08;4.70;;;2.83;;
2326;SDS011;1174;51.588;7.328;2022-08-03T09:24:36;4.40;;;2.17;;
2326;SDS011;1174;51.588;7.328;2022-08-03T09:27:18;3.30;;;1.80;;
2326;SDS011;1174;51.588;7.328;2022-08-03T09:29:46;5.87;;;1.97;;
2326;SDS011;1174;51.588;7.328;2022-08-03T09:32:13;4.30;;;2.00;;
2326;SDS011;1174;51.588;7.328;2022-08-03T09:34:40;2.30;;;1.83;;
2326;SDS011;1174;51.588;7.328;2022-08-03T09:37:13;5.07;;;2.00;;
2326;SDS011;1174;51.588;7.328;2022-08-03T09:39:40;2.40;;;2.20;;
2326;SDS011;1174;51.588;7.328;2022-08-03T09:42:08;1.90;;;1.70;;
2326;SDS011;1174;51.588;7.328;2022-08-03T09:44:36;2.23;;;1.83;;
2326;SDS011;1174;51.588;7.328;2022-08-03T09:47:06;3.73;;;2.07;;
2326;SDS011;1174;51.588;7.328;2022-08-03T09:49:34;6.00;;;1.87;;
2326;SDS011;1174;51.588;7.328;2022-08-03T09:52:10;4.90;;;2.23;;
2326;SDS011;1174;51.588;7.328;2022-08-03T09:57:08;3.83;;;2.10;;
2326;SDS011;1174;51.588;7.328;2022-08-03T09:59:46;10.53;;;2.37;;
2326;SDS011;1174;51.588;7.328;2022-08-03T10:02:19;6.57;;;2.23;;
2326;SDS011;1174;51.588;7.328;2022-08-03T10:04:48;4.27;;;2.40;;
2326;SDS011;1174;51.588;7.328;2022-08-03T10:07:18;2.33;;;1.70;;
2326;SDS011;1174;51.588;7.328;2022-08-03T10:09:52;1.80;;;1.47;;
2326;SDS011;1174;51.588;7.328;2022-08-03T10:12:21;7.40;;;2.53;;
2326;SDS011;1174;51.588;7.328;2022-08-03T10:14:48;2.97;;;1.70;;
2326;SDS011;1174;51.588;7.328;2022-08-03T10:17:15;2.50;;;1.50;;
2326;SDS011;1174;51.588;7.328;2022-08-03T10:19:41;4.70;;;1.83;;
2326;SDS011;1174;51.588;7.328;2022-08-03T10:22:09;2.03;;;1.80;;
2326;SDS011;1174;51.588;7.328;2022-08-03T10:24:41;2.07;;;1.80;;
2326;SDS011;1174;51.588;7.328;2022-08-03T10:27:14;5.03;;;1.70;;
2326;SDS011;1174;51.588;7.328;2022-08-03T10:29:44;4.03;;;1.77;;
2326;SDS011;1174;51.588;7.328;2022-08-03T10:32:17;6.00;;;1.83;;
2326;SDS011;1174;51.588;7.328;2022-08-03T10:34:47;11.40;;;3.63;;
2326;SDS011;1174;51.588;7.328;2022-08-03T10:37:16;4.10;;;1.77;;
2326;SDS011;1174;51.588;7.328;2022-08-03T10:39:45;1.50;;;1.40;;
2326;SDS011;1174;51.588;7.328;2022-08-03T10:42:20;3.57;;;1.60;;
2326;SDS011;1174;51.588;7.328;2022-08-03T10:44:51;2.40;;;1.90;;
2326;SDS011;1174;51.588;7.328;2022-08-03T10:47:23;2.60;;;1.90;;
2326;SDS011;1174;51.588;7.328;2022-08-03T10:49:50;3.73;;;2.07;;
2326;SDS011;1174;51.588;7.328;2022-08-03T10:52:17;4.60;;;1.63;;
2326;SDS011;1174;51.588;7.328;2022-08-03T10:54:46;2.90;;;1.60;;
2326;SDS011;1174;51.588;7.328;2022-08-03T10:57:43;5.73;;;1.90;;
2326;SDS011;1174;51.588;7.328;2022-08-03T11:00:11;3.37;;;1.90;;
2326;SDS011;1174;51.588;7.328;2022-08-03T11:05:35;1.73;;;1.37;;
2326;SDS011;1174;51.588;7.328;2022-08-03T11:08:17;4.27;;;1.80;;
2326;SDS011;1174;51.588;7.328;2022-08-03T11:10:47;4.87;;;2.80;;
2326;SDS011;1174;51.588;7.328;2022-08-03T11:13:15;3.70;;;1.77;;
2326;SDS011;1174;51.588;7.328;2022-08-03T11:15:44;4.03;;;1.90;;
2326;SDS011;1174;51.588;7.328;2022-08-03T11:18:13;1.90;;;1.20;;
2326;SDS011;1174;51.588;7.328;2022-08-03T11:20:47;1.93;;;1.60;;
2326;SDS011;1174;51.588;7.328;2022-08-03T11:23:16;3.30;;;1.83;;
2326;SDS011;1174;51.588;7.328;2022-08-03T11:28:35;2.17;;;1.33;;
2326;SDS011;1174;51.588;7.328;2022-08-03T11:34:21;6.17;;;1.90;;
2326;SDS011;1174;51.588;7.328;2022-08-03T11:39:49;4.53;;;2.07;;
2326;SDS011;1174;51.588;7.328;2022-08-03T11:45:12;3.97;;;2.07;;
2326;SDS011;1174;51.588;7.328;2022-08-03T11:47:39;3.73;;;2.20;;
2326;SDS011;1174;51.588;7.328;2022-08-03T11:50:08;9.83;;;3.00;;
2326;SDS011;1174;51.588;7.328;2022-08-03T11:52:40;5.33;;;1.67;;
2326;SDS011;1174;51.588;7.328;2022-08-03T11:55:08;4.20;;;1.60;;
2326;SDS011;1174;51.588;7.328;2022-08-03T11:57:35;6.00;;;1.67;;
2326;SDS011;1174;51.588;7.328;2022-08-03T12:00:04;4.67;;;2.20;;
2326;SDS011;1174;51.588;7.328;2022-08-03T12:02:57;3.20;;;1.70;;
2326;SDS011;1174;51.588;7.328;2022-08-03T12:05:42;2.73;;;1.70;;
2326;SDS011;1174;51.588;7.328;2022-08-03T12:08:12;9.87;;;2.47;;
2326;SDS011;1174;51.588;7.328;2022-08-03T12:10:44;4.57;;;1.70;;
2326;SDS011;1174;51.588;7.328;2022-08-03T12:13:13;5.77;;;2.40;;
2326;SDS011;1174;51.588;7.328;2022-08-03T12:15:41;5.00;;;2.20;;
2326;SDS011;1174;51.588;7.328;2022-08-03T12:18:13;6.37;;;2.17;;
2326;SDS011;1174;51.588;7.328;2022-08-03T12:20:41;5.07;;;1.87;;
2326;SDS011;1174;51.588;7.328;2022-08-03T12:23:09;7.83;;;2.87;;
2326;SDS011;1174;51.588;7.328;2022-08-03T12:25:37;4.33;;;1.70;;
2326;SDS011;1174;51.588;7.328;2022-08-03T12:28:07;4.90;;;1.50;;
2326;SDS011;1174;51.588;7.328;2022-08-03T12:30:36;5.50;;;1.80;;
2326;SDS011;1174;51.588;7.328;2022-08-03T12:33:14;2.90;;;1.60;;
2326;SDS011;1174;51.588;7.328;2022-08-03T12:35:44;3.40;;;1.87;;
2326;SDS011;1174;51.588;7.328;2022-08-03T12:38:11;2.00;;;1.67;;
2326;SDS011;1174;51.588;7.328;2022-08-03T12:40:38;5.00;;;1.90;;
2326;SDS011;1174;51.588;7.328;2022-08-03T12:43:14;3.90;;;1.80;;
2326;SDS011;1174;51.588;7.328;2022-08-03T12:45:41;4.50;;;1.50;;
2326;SDS011;1174;51.588;7.328;2022-08-03T12:48:09;2.97;;;1.80;;
2326;SDS011;1174;51.588;7.328;2022-08-03T12:50:38;2.70;;;2.00;;
2326;SDS011;1174;51.588;7.328;2022-08-03T12:53:06;3.20;;;1.90;;
2326;SDS011;1174;51.588;7.328;2022-08-03T12:55:35;3.30;;;1.87;;
2326;SDS011;1174;51.588;7.328;2022-08-03T12:58:03;5.50;;;1.77;;
2326;SDS011;1174;51.588;7.328;2022-08-03T13:00:31;2.40;;;1.47;;
2326;SDS011;1174;51.588;7.328;2022-08-03T13:02:59;3.57;;;2.27;;
2326;SDS011;1174;51.588;7.328;2022-08-03T13:05:27;6.70;;;5.00;;
2326;SDS011;1174;51.588;7.328;2022-08-03T13:07:56;3.00;;;1.67;;
2326;SDS011;1174;51.588;7.328;2022-08-03T13:10:27;2.23;;;1.87;;
2326;SDS011;1174;51.588;7.328;2022-08-03T13:12:55;8.23;;;2.13;;
2326;SDS011;1174;51.588;7.328;2022-08-03T13:15:24;2.17;;;1.47;;
2326;SDS011;1174;51.588;7.328;2022-08-03T13:17:53;3.87;;;1.70;;
2326;SDS011;1174;51.588;7.328;2022-08-03T13:20:20;5.60;;;1.80;;
2326;SDS011;1174;51.588;7.328;2022-08-03T13:22:47;2.80;;;1.50;;
2326;SDS011;1174;51.588;7.328;2022-08-03T13:25:16;3.30;;;1.50;;
2326;SDS011;1174;51.588;7.328;2022-08-03T13:27:43;1.97;;;1.20;;
2326;SDS011;1174;51.588;7.328;2022-08-03T13:30:10;3.17;;;1.70;;
2326;SDS011;1174;51.588;7.328;2022-08-03T13:32:37;3.23;;;1.87;;
2326;SDS011;1174;51.588;7.328;2022-08-03T13:35:05;2.27;;;1.33;;
2326;SDS011;1174;51.588;7.328;2022-08-03T13:37:32;2.27;;;1.40;;
2326;SDS011;1174;51.588;7.328;2022-08-03T13:40:00;2.60;;;1.50;;
2326;SDS011;1174;51.588;7.328;2022-08-03T13:42:29;2.27;;;1.50;;
2326;SDS011;1174;51.588;7.328;2022-08-03T13:44:57;2.90;;;1.10;;
2326;SDS011;1174;51.588;7.328;2022-08-03T13:47:25;3.17;;;1.40;;
2326;SDS011;1174;51.588;7.328;2022-08-03T13:49:52;4.30;;;1.50;;
2326;SDS011;1174;51.588;7.328;2022-08-03T13:52:19;2.33;;;1.30;;
2326;SDS011;1174;51.588;7.328;2022-08-03T13:54:46;2.50;;;1.67;;
2326;SDS011;1174;51.588;7.328;2022-08-03T13:57:13;2.33;;;1.70;;
2326;SDS011;1174;51.588;7.328;2022-08-03T13:59:41;3.87;;;1.50;;
2326;SDS011;1174;51.588;7.328;2022-08-03T14:02:08;2.93;;;1.30;;
2326;SDS011;1174;51.588;7.328;2022-08-03T14:04:35;3.77;;;1.70;;
2326;SDS011;1174;51.588;7.328;2022-08-03T14:07:01;2.80;;;1.80;;
2326;SDS011;1174;51.588;7.328;2022-08-03T14:09:28;4.80;;;1.40;;
2326;SDS011;1174;51.588;7.328;2022-08-03T14:11:55;2.30;;;1.53;;
2326;SDS011;1174;51.588;7.328;2022-08-03T14:14:22;5.60;;;2.80;;
2326;SDS011;1174;51.588;7.328;2022-08-03T14:16:50;3.90;;;1.60;;
2326;SDS011;1174;51.588;7.328;2022-08-03T14:19:17;2.33;;;1.30;;
2326;SDS011;1174;51.588;7.328;2022-08-03T14:21:44;5.03;;;2.00;;
2326;SDS011;1174;51.588;7.328;2022-08-03T14:24:11;1.60;;;1.10;;
2326;SDS011;1174;51.588;7.328;2022-08-03T14:26:37;4.50;;;1.47;;
2326;SDS011;1174;51.588;7.328;2022-08-03T14:29:04;2.73;;;1.50;;
2326;SDS011;1174;51.588;7.328;2022-08-03T14:31:31;3.90;;;1.60;;
2326;SDS011;1174;51.588;7.328;2022-08-03T14:33:59;1.93;;;1.37;;
2326;SDS011;1174;51.588;7.328;2022-08-03T14:36:26;6.03;;;1.40;;
2326;SDS011;1174;51.588;7.328;2022-08-03T14:38:53;5.57;;;1.80;;
2326;SDS011;1174;51.588;7.328;2022-08-03T14:41:20;6.57;;;1.70;;
2326;SDS011;1174;51.588;7.328;2022-08-03T14:43:47;3.00;;;1.47;;
2326;SDS011;1174;51.588;7.328;2022-08-03T14:46:14;2.30;;;1.50;;
2326;SDS011;1174;51.588;7.328;2022-08-03T14:48:41;2.27;;;1.20;;
2326;SDS011;1174;51.588;7.328;2022-08-03T14:51:09;6.23;;;1.50;;
2326;SDS011;1174;51.588;7.328;2022-08-03T14:53:36;3.00;;;1.30;;
2326;SDS011;1174;51.588;7.328;2022-08-03T14:56:03;2.90;;;1.73;;
2326;SDS011;1174;51.588;7.328;2022-08-03T14:58:30;8.93;;;1.83;;
2326;SDS011;1174;51.588;7.328;2022-08-03T15:00:57;3.50;;;1.90;;
2326;SDS011;1174;51.588;7.328;2022-08-03T15:03:24;4.83;;;1.63;;
2326;SDS011;1174;51.588;7.328;2022-08-03T15:05:51;3.87;;;1.33;;
2326;SDS011;1174;51.588;7.328;2022-08-03T15:08:21;3.50;;;1.63;;
2326;SDS011;1174;51.588;7.328;2022-08-03T15:10:49;6.87;;;1.60;;
2326;SDS011;1174;51.588;7.328;2022-08-03T15:13:16;4.87;;;1.77;;
2326;SDS011;1174;51.588;7.328;2022-08-03T15:15:43;2.50;;;1.97;;
2326;SDS011;1174;51.588;7.328;2022-08-03T15:18:10;2.80;;;1.77;;
2326;SDS011;1174;51.588;7.328;2022-08-03T15:20:37;4.00;;;1.90;;
2326;SDS011;1174;51.588;7.328;2022-08-03T15:23:04;3.40;;;1.80;;
2326;SDS011;1174;51.588;7.328;2022-08-03T15:25:32;7.20;;;1.43;;
2326;SDS011;1174;51.588;7.328;2022-08-03T15:27:59;6.40;;;1.80;;
2326;SDS011;1174;51.588;7.328;2022-08-03T15:30:26;2.07;;;1.43;;
2326;SDS011;1174;51.588;7.328;2022-08-03T15:32:53;8.40;;;2.10;;
2326;SDS011;1174;51.588;7.328;2022-08-03T15:35:20;5.70;;;1.70;;
2326;SDS011;1174;51.588;7.328;2022-08-03T15:37:46;3.63;;;1.77;;
2326;SDS011;1174;51.588;7.328;2022-08-03T15:40:13;4.77;;;1.80;;
2326;SDS011;1174;51.588;7.328;2022-08-03T15:42:42;3.47;;;1.67;;
2326;SDS011;1174;51.588;7.328;2022-08-03T15:45:09;2.83;;;1.90;;